sensor_id;sensor_type;location;lat;lon;timestamp;temperature;humidity
37052;DHT22;22964;52.272;13.356;2023-06-24T00:02:04;21.60;83.00
37052;DHT22;22964;52.272;13.356;2023-06-24T00:04:30;21.70;83.10
37052;DHT22;22964;52.272;13.356;2023-06-24T00:06:55;21.60;83.00
37052;DHT22;22964;52.272;13.356;2023-06-24T00:09:25;21.60;83.00
37052;DHT22;22964;52.272;13.356;2023-06-24T00:11:56;21.60;83.00
37052;DHT22;22964;52.272;13.356;2023-06-24T00:14:22;21.60;82.90
37052;DHT22;22964;52.272;13.356;2023-06-24T00:16:50;21.60;82.90
37052;DHT22;22964;52.272;13.356;2023-06-24T00:19:24;21.60;83.00
37052;DHT22;22964;52.272;13.356;2023-06-24T00:21:51;21.60;83.30
37052;DHT22;22964;52.272;13.356;2023-06-24T00:24:21;21.60;83.00
37052;DHT22;22964;52.272;13.356;2023-06-24T00:26:55;21.60;83.00
37052;DHT22;22964;52.272;13.356;2023-06-24T00:29:21;21.60;83.10
37052;DHT22;22964;52.272;13.356;2023-06-24T00:31:47;21.50;82.90
37052;DHT22;22964;52.272;13.356;2023-06-24T00:34:13;21.50;82.90
37052;DHT22;22964;52.272;13.356;2023-06-24T00:36:39;21.50;82.90
37052;DHT22;22964;52.272;13.356;2023-06-24T00:39:05;21.50;82.90
37052;DHT22;22964;52.272;13.356;2023-06-24T00:41:32;21.50;82.80
37052;DHT22;22964;52.272;13.356;2023-06-24T00:43:59;21.50;82.80
37052;DHT22;22964;52.272;13.356;2023-06-24T00:46:25;21.50;82.80
37052;DHT22;22964;52.272;13.356;2023-06-24T00:48:52;21.40;82.70
37052;DHT22;22964;52.272;13.356;2023-06-24T00:51:19;21.40;82.70
37052;DHT22;22964;52.272;13.356;2023-06-24T00:53:47;21.40;82.60
37052;DHT22;22964;52.272;13.356;2023-06-24T00:56:14;21.40;82.60
37052;DHT22;22964;52.272;13.356;2023-06-24T00:58:43;21.30;82.50
37052;DHT22;22964;52.272;13.356;2023-06-24T01:01:09;21.40;82.50
37052;DHT22;22964;52.272;13.356;2023-06-24T01:03:36;21.30;82.50
37052;DHT22;22964;52.272;13.356;2023-06-24T01:06:03;21.30;82.70
37052;DHT22;22964;52.272;13.356;2023-06-24T01:08:29;21.30;82.70
37052;DHT22;22964;52.272;13.356;2023-06-24T01:10:55;21.30;82.70
37052;DHT22;22964;52.272;13.356;2023-06-24T01:13:21;21.20;82.70
37052;DHT22;22964;52.272;13.356;2023-06-24T01:15:48;21.20;82.70
37052;DHT22;22964;52.272;13.356;2023-06-24T01:18:24;21.20;82.70
37052;DHT22;22964;52.272;13.356;2023-06-24T01:21:10;21.10;82.80
37052;DHT22;22964;52.272;13.356;2023-06-24T01:27:47;21.10;82.80
37052;DHT22;22964;52.272;13.356;2023-06-24T01:32:48;21.00;82.70
37052;DHT22;22964;52.272;13.356;2023-06-24T01:35:21;21.00;82.30
37052;DHT22;22964;52.272;13.356;2023-06-24T01:37:51;21.00;82.30
37052;DHT22;22964;52.272;13.356;2023-06-24T01:40:27;21.00;82.20
37052;DHT22;22964;52.272;13.356;2023-06-24T01:42:57;20.90;82.30
37052;DHT22;22964;52.272;13.356;2023-06-24T01:45:26;20.90;82.30
37052;DHT22;22964;52.272;13.356;2023-06-24T01:48:11;20.90;82.30
37052;DHT22;22964;52.272;13.356;2023-06-24T01:50:40;20.80;82.20
37052;DHT22;22964;52.272;13.356;2023-06-24T01:53:08;20.80;82.10
37052;DHT22;22964;52.272;13.356;2023-06-24T01:55:35;20.80;82.00
37052;DHT22;22964;52.272;13.356;2023-06-24T01:58:06;20.80;81.90
37052;DHT22;22964;52.272;13.356;2023-06-24T02:00:33;20.70;81.80
37052;DHT22;22964;52.272;13.356;2023-06-24T02:03:01;20.70;81.80
37052;DHT22;22964;52.272;13.356;2023-06-24T02:05:28;20.70;81.70
37052;DHT22;22964;52.272;13.356;2023-06-24T02:07:54;20.60;81.70
37052;DHT22;22964;52.272;13.356;2023-06-24T02:10:23;20.60;81.60
37052;DHT22;22964;52.272;13.356;2023-06-24T02:12:50;20.60;81.60
37052;DHT22;22964;52.272;13.356;2023-06-24T02:15:18;20.50;81.50
37052;DHT22;22964;52.272;13.356;2023-06-24T02:17:46;20.50;81.50
37052;DHT22;22964;52.272;13.356;2023-06-24T02:20:14;20.50;81.50
37052;DHT22;22964;52.272;13.356;2023-06-24T02:22:41;20.50;82.40
37052;DHT22;22964;52.272;13.356;2023-06-24T02:25:09;20.50;81.50
37052;DHT22;22964;52.272;13.356;2023-06-24T02:27:36;20.40;81.60
37052;DHT22;22964;52.272;13.356;2023-06-24T02:30:08;20.40;81.60
37052;DHT22;22964;52.272;13.356;2023-06-24T02:32:34;20.40;81.70
37052;DHT22;22964;52.272;13.356;2023-06-24T02:35:04;20.40;81.80
37052;DHT22;22964;52.272;13.356;2023-06-24T02:37:30;20.30;81.80
37052;DHT22;22964;52.272;13.356;2023-06-24T02:39:56;20.30;81.90
37052;DHT22;22964;52.272;13.356;2023-06-24T02:42:22;20.30;81.90
37052;DHT22;22964;52.272;13.356;2023-06-24T02:44:50;20.20;81.90
37052;DHT22;22964;52.272;13.356;2023-06-24T02:47:17;20.20;81.90
37052;DHT22;22964;52.272;13.356;2023-06-24T02:49:44;20.20;81.90
37052;DHT22;22964;52.272;13.356;2023-06-24T02:52:15;20.20;81.80
37052;DHT22;22964;52.272;13.356;2023-06-24T02:54:41;20.20;81.80
37052;DHT22;22964;52.272;13.356;2023-06-24T02:57:43;20.20;81.90
37052;DHT22;22964;52.272;13.356;2023-06-24T03:00:41;20.20;81.90
37052;DHT22;22964;52.272;13.356;2023-06-24T03:03:09;20.10;81.70
37052;DHT22;22964;52.272;13.356;2023-06-24T03:05:45;20.10;81.60
37052;DHT22;22964;52.272;13.356;2023-06-24T03:08:14;20.10;81.60
37052;DHT22;22964;52.272;13.356;2023-06-24T03:10:41;20.10;81.60
37052;DHT22;22964;52.272;13.356;2023-06-24T03:13:12;20.00;81.60
37052;DHT22;22964;52.272;13.356;2023-06-24T03:15:45;20.00;81.70
37052;DHT22;22964;52.272;13.356;2023-06-24T03:18:11;20.00;81.60
37052;DHT22;22964;52.272;13.356;2023-06-24T03:20:38;20.00;81.60
37052;DHT22;22964;52.272;13.356;2023-06-24T03:23:11;20.00;81.60
37052;DHT22;22964;52.272;13.356;2023-06-24T03:25:38;19.90;81.70
37052;DHT22;22964;52.272;13.356;2023-06-24T03:28:04;19.90;81.70
37052;DHT22;22964;52.272;13.356;2023-06-24T03:30:34;19.90;81.60
37052;DHT22;22964;52.272;13.356;2023-06-24T03:33:01;19.90;81.60
37052;DHT22;22964;52.272;13.356;2023-06-24T03:35:28;19.90;81.60
37052;DHT22;22964;52.272;13.356;2023-06-24T03:37:58;19.90;81.60
37052;DHT22;22964;52.272;13.356;2023-06-24T03:40:24;19.80;81.60
37052;DHT22;22964;52.272;13.356;2023-06-24T03:42:50;19.80;81.60
37052;DHT22;22964;52.272;13.356;2023-06-24T03:45:16;19.80;81.80
37052;DHT22;22964;52.272;13.356;2023-06-24T03:47:43;19.80;81.80
37052;DHT22;22964;52.272;13.356;2023-06-24T03:50:09;19.80;81.90
37052;DHT22;22964;52.272;13.356;2023-06-24T03:52:35;19.80;81.90
37052;DHT22;22964;52.272;13.356;2023-06-24T03:55:01;19.80;82.00
37052;DHT22;22964;52.272;13.356;2023-06-24T03:57:29;19.80;82.10
37052;DHT22;22964;52.272;13.356;2023-06-24T03:59:55;19.70;82.10
37052;DHT22;22964;52.272;13.356;2023-06-24T04:02:21;19.70;82.10
37052;DHT22;22964;52.272;13.356;2023-06-24T04:04:47;19.70;82.30
37052;DHT22;22964;52.272;13.356;2023-06-24T04:07:16;19.70;82.50
37052;DHT22;22964;52.272;13.356;2023-06-24T04:09:56;19.70;82.50
37052;DHT22;22964;52.272;13.356;2023-06-24T04:12:22;19.70;82.60
37052;DHT22;22964;52.272;13.356;2023-06-24T04:14:48;19.70;82.50
37052;DHT22;22964;52.272;13.356;2023-06-24T04:17:14;19.70;82.40
37052;DHT22;22964;52.272;13.356;2023-06-24T04:19:39;19.70;82.40
37052;DHT22;22964;52.272;13.356;2023-06-24T04:22:05;19.70;82.20
37052;DHT22;22964;52.272;13.356;2023-06-24T04:24:31;19.70;82.20
37052;DHT22;22964;52.272;13.356;2023-06-24T04:26:58;19.70;82.40
37052;DHT22;22964;52.272;13.356;2023-06-24T04:29:23;19.70;82.70
37052;DHT22;22964;52.272;13.356;2023-06-24T04:31:49;19.70;83.00
37052;DHT22;22964;52.272;13.356;2023-06-24T04:34:15;19.70;83.10
37052;DHT22;22964;52.272;13.356;2023-06-24T04:36:42;19.70;83.30
37052;DHT22;22964;52.272;13.356;2023-06-24T04:39:07;19.80;83.50
37052;DHT22;22964;52.272;13.356;2023-06-24T04:41:34;19.80;83.50
37052;DHT22;22964;52.272;13.356;2023-06-24T04:44:00;19.80;83.60
37052;DHT22;22964;52.272;13.356;2023-06-24T04:46:25;19.90;83.70
37052;DHT22;22964;52.272;13.356;2023-06-24T04:48:51;19.90;83.90
37052;DHT22;22964;52.272;13.356;2023-06-24T04:51:17;19.90;84.10
37052;DHT22;22964;52.272;13.356;2023-06-24T04:53:42;20.00;84.50
37052;DHT22;22964;52.272;13.356;2023-06-24T04:56:08;20.00;84.70
37052;DHT22;22964;52.272;13.356;2023-06-24T04:58:34;20.10;84.80
37052;DHT22;22964;52.272;13.356;2023-06-24T05:00:59;20.20;84.60
37052;DHT22;22964;52.272;13.356;2023-06-24T05:03:25;20.20;84.10
37052;DHT22;22964;52.272;13.356;2023-06-24T05:05:51;20.30;83.70
37052;DHT22;22964;52.272;13.356;2023-06-24T05:08:17;20.30;83.40
37052;DHT22;22964;52.272;13.356;2023-06-24T05:10:42;20.30;83.20
37052;DHT22;22964;52.272;13.356;2023-06-24T05:13:09;20.30;83.00
37052;DHT22;22964;52.272;13.356;2023-06-24T05:15:34;20.30;83.00
37052;DHT22;22964;52.272;13.356;2023-06-24T05:18:00;20.40;83.20
37052;DHT22;22964;52.272;13.356;2023-06-24T05:20:27;20.40;83.30
37052;DHT22;22964;52.272;13.356;2023-06-24T05:22:53;20.40;83.90
37052;DHT22;22964;52.272;13.356;2023-06-24T05:25:19;20.40;84.20
37052;DHT22;22964;52.272;13.356;2023-06-24T05:27:44;20.40;84.10
37052;DHT22;22964;52.272;13.356;2023-06-24T05:30:10;20.50;84.00
37052;DHT22;22964;52.272;13.356;2023-06-24T05:32:36;20.60;83.80
37052;DHT22;22964;52.272;13.356;2023-06-24T05:35:02;20.60;83.40
37052;DHT22;22964;52.272;13.356;2023-06-24T05:37:29;20.60;82.90
37052;DHT22;22964;52.272;13.356;2023-06-24T05:39:54;20.70;82.60
37052;DHT22;22964;52.272;13.356;2023-06-24T05:42:22;20.70;82.30
37052;DHT22;22964;52.272;13.356;2023-06-24T05:44:48;20.70;82.40
37052;DHT22;22964;52.272;13.356;2023-06-24T05:47:14;20.70;82.70
37052;DHT22;22964;52.272;13.356;2023-06-24T05:49:40;20.70;83.10
37052;DHT22;22964;52.272;13.356;2023-06-24T05:52:06;20.80;83.30
37052;DHT22;22964;52.272;13.356;2023-06-24T05:54:32;20.80;83.40
37052;DHT22;22964;52.272;13.356;2023-06-24T05:56:57;20.90;83.50
37052;DHT22;22964;52.272;13.356;2023-06-24T05:59:23;20.90;83.60
37052;DHT22;22964;52.272;13.356;2023-06-24T06:01:48;21.00;83.60
37052;DHT22;22964;52.272;13.356;2023-06-24T06:04:14;21.10;83.50
37052;DHT22;22964;52.272;13.356;2023-06-24T06:06:40;21.10;83.00
37052;DHT22;22964;52.272;13.356;2023-06-24T06:09:06;21.20;83.00
37052;DHT22;22964;52.272;13.356;2023-06-24T06:11:32;21.30;82.70
37052;DHT22;22964;52.272;13.356;2023-06-24T06:13:57;21.40;82.30
37052;DHT22;22964;52.272;13.356;2023-06-24T06:16:23;21.40;81.90
37052;DHT22;22964;52.272;13.356;2023-06-24T06:18:49;21.50;82.00
37052;DHT22;22964;52.272;13.356;2023-06-24T06:21:15;21.50;81.90
37052;DHT22;22964;52.272;13.356;2023-06-24T06:23:41;21.60;81.80
37052;DHT22;22964;52.272;13.356;2023-06-24T06:26:06;21.70;81.70
37052;DHT22;22964;52.272;13.356;2023-06-24T06:28:32;21.80;81.90
37052;DHT22;22964;52.272;13.356;2023-06-24T06:30:58;21.90;81.60
37052;DHT22;22964;52.272;13.356;2023-06-24T06:33:23;22.00;81.40
37052;DHT22;22964;52.272;13.356;2023-06-24T06:35:49;22.10;81.80
37052;DHT22;22964;52.272;13.356;2023-06-24T06:38:15;22.20;81.50
37052;DHT22;22964;52.272;13.356;2023-06-24T06:40:41;22.30;81.30
37052;DHT22;22964;52.272;13.356;2023-06-24T06:43:06;22.40;81.00
37052;DHT22;22964;52.272;13.356;2023-06-24T06:45:32;22.50;80.50
37052;DHT22;22964;52.272;13.356;2023-06-24T06:47:58;22.60;80.30
37052;DHT22;22964;52.272;13.356;2023-06-24T06:50:23;22.80;80.20
37052;DHT22;22964;52.272;13.356;2023-06-24T06:52:49;22.90;80.00
37052;DHT22;22964;52.272;13.356;2023-06-24T06:55:15;23.00;78.90
37052;DHT22;22964;52.272;13.356;2023-06-24T06:57:40;23.10;78.50
37052;DHT22;22964;52.272;13.356;2023-06-24T07:00:06;23.20;78.30
37052;DHT22;22964;52.272;13.356;2023-06-24T07:02:32;23.30;77.90
37052;DHT22;22964;52.272;13.356;2023-06-24T07:04:58;23.40;77.60
37052;DHT22;22964;52.272;13.356;2023-06-24T07:07:24;23.50;77.20
37052;DHT22;22964;52.272;13.356;2023-06-24T07:09:50;23.60;77.00
37052;DHT22;22964;52.272;13.356;2023-06-24T07:12:16;23.70;76.70
37052;DHT22;22964;52.272;13.356;2023-06-24T07:14:41;23.80;75.70
37052;DHT22;22964;52.272;13.356;2023-06-24T07:17:07;23.80;75.90
37052;DHT22;22964;52.272;13.356;2023-06-24T07:19:33;23.90;76.30
37052;DHT22;22964;52.272;13.356;2023-06-24T07:21:59;24.00;76.60
37052;DHT22;22964;52.272;13.356;2023-06-24T07:24:25;24.20;76.60
37052;DHT22;22964;52.272;13.356;2023-06-24T07:26:50;24.20;75.20
37052;DHT22;22964;52.272;13.356;2023-06-24T07:29:16;24.30;74.50
37052;DHT22;22964;52.272;13.356;2023-06-24T07:31:42;24.50;74.20
37052;DHT22;22964;52.272;13.356;2023-06-24T07:34:07;24.50;74.30
37052;DHT22;22964;52.272;13.356;2023-06-24T07:36:33;24.60;73.50
37052;DHT22;22964;52.272;13.356;2023-06-24T07:38:59;24.70;73.20
37052;DHT22;22964;52.272;13.356;2023-06-24T07:41:25;24.80;72.50
37052;DHT22;22964;52.272;13.356;2023-06-24T07:43:51;24.90;71.80
37052;DHT22;22964;52.272;13.356;2023-06-24T07:46:17;25.00;71.40
37052;DHT22;22964;52.272;13.356;2023-06-24T07:48:43;25.00;70.90
37052;DHT22;22964;52.272;13.356;2023-06-24T07:51:08;25.10;71.10
37052;DHT22;22964;52.272;13.356;2023-06-24T07:53:36;25.20;71.00
37052;DHT22;22964;52.272;13.356;2023-06-24T07:56:01;25.30;71.10
37052;DHT22;22964;52.272;13.356;2023-06-24T07:58:27;25.50;69.70
37052;DHT22;22964;52.272;13.356;2023-06-24T08:00:53;25.60;69.00
37052;DHT22;22964;52.272;13.356;2023-06-24T08:03:18;25.60;67.90
37052;DHT22;22964;52.272;13.356;2023-06-24T08:05:44;25.60;68.20
37052;DHT22;22964;52.272;13.356;2023-06-24T08:08:10;25.70;67.80
37052;DHT22;22964;52.272;13.356;2023-06-24T08:10:36;25.70;66.60
37052;DHT22;22964;52.272;13.356;2023-06-24T08:13:02;25.70;65.80
37052;DHT22;22964;52.272;13.356;2023-06-24T08:15:27;25.70;66.10
37052;DHT22;22964;52.272;13.356;2023-06-24T08:17:53;25.70;66.80
37052;DHT22;22964;52.272;13.356;2023-06-24T08:20:21;25.70;66.60
37052;DHT22;22964;52.272;13.356;2023-06-24T08:22:47;25.60;65.40
37052;DHT22;22964;52.272;13.356;2023-06-24T08:25:12;25.70;65.60
37052;DHT22;22964;52.272;13.356;2023-06-24T08:27:38;25.70;66.00
37052;DHT22;22964;52.272;13.356;2023-06-24T08:30:07;25.80;65.80
37052;DHT22;22964;52.272;13.356;2023-06-24T08:32:33;25.90;64.30
37052;DHT22;22964;52.272;13.356;2023-06-24T08:34:59;25.90;66.00
37052;DHT22;22964;52.272;13.356;2023-06-24T08:37:25;26.00;66.10
37052;DHT22;22964;52.272;13.356;2023-06-24T08:39:50;26.10;65.90
37052;DHT22;22964;52.272;13.356;2023-06-24T08:42:16;26.20;65.60
37052;DHT22;22964;52.272;13.356;2023-06-24T08:44:42;26.30;64.90
37052;DHT22;22964;52.272;13.356;2023-06-24T08:47:07;26.40;64.70
37052;DHT22;22964;52.272;13.356;2023-06-24T08:49:38;26.60;64.40
37052;DHT22;22964;52.272;13.356;2023-06-24T08:52:11;26.70;62.50
37052;DHT22;22964;52.272;13.356;2023-06-24T08:54:40;26.80;61.40
37052;DHT22;22964;52.272;13.356;2023-06-24T08:57:06;26.80;60.60
37052;DHT22;22964;52.272;13.356;2023-06-24T08:59:34;26.90;61.50
37052;DHT22;22964;52.272;13.356;2023-06-24T09:02:01;26.90;61.30
37052;DHT22;22964;52.272;13.356;2023-06-24T09:04:26;27.00;61.10
37052;DHT22;22964;52.272;13.356;2023-06-24T09:06:52;27.00;60.30
37052;DHT22;22964;52.272;13.356;2023-06-24T09:09:19;27.10;61.00
37052;DHT22;22964;52.272;13.356;2023-06-24T09:12:12;27.10;60.20
37052;DHT22;22964;52.272;13.356;2023-06-24T09:14:38;27.20;58.50
37052;DHT22;22964;52.272;13.356;2023-06-24T09:17:06;27.30;60.40
37052;DHT22;22964;52.272;13.356;2023-06-24T09:19:32;27.40;59.90
37052;DHT22;22964;52.272;13.356;2023-06-24T09:22:09;27.50;59.80
37052;DHT22;22964;52.272;13.356;2023-06-24T09:24:42;27.60;58.50
37052;DHT22;22964;52.272;13.356;2023-06-24T09:27:07;27.70;59.30
37052;DHT22;22964;52.272;13.356;2023-06-24T09:29:34;27.80;59.00
37052;DHT22;22964;52.272;13.356;2023-06-24T09:32:04;27.90;58.10
37052;DHT22;22964;52.272;13.356;2023-06-24T09:34:30;28.00;57.30
37052;DHT22;22964;52.272;13.356;2023-06-24T09:36:58;28.00;57.00
37052;DHT22;22964;52.272;13.356;2023-06-24T09:39:25;28.10;56.60
37052;DHT22;22964;52.272;13.356;2023-06-24T09:41:59;28.10;56.40
37052;DHT22;22964;52.272;13.356;2023-06-24T09:44:26;28.20;56.40
37052;DHT22;22964;52.272;13.356;2023-06-24T09:46:53;28.20;56.80
37052;DHT22;22964;52.272;13.356;2023-06-24T09:49:19;28.30;56.60
37052;DHT22;22964;52.272;13.356;2023-06-24T09:51:47;28.40;55.80
37052;DHT22;22964;52.272;13.356;2023-06-24T09:54:14;28.50;55.30
37052;DHT22;22964;52.272;13.356;2023-06-24T09:56:44;28.60;55.40
37052;DHT22;22964;52.272;13.356;2023-06-24T09:59:12;28.60;54.00
37052;DHT22;22964;52.272;13.356;2023-06-24T10:01:40;28.70;54.10
37052;DHT22;22964;52.272;13.356;2023-06-24T10:04:07;28.70;53.30
37052;DHT22;22964;52.272;13.356;2023-06-24T10:06:33;28.70;53.20
37052;DHT22;22964;52.272;13.356;2023-06-24T10:09:00;28.80;53.00
37052;DHT22;22964;52.272;13.356;2023-06-24T10:11:26;28.80;53.40
37052;DHT22;22964;52.272;13.356;2023-06-24T10:13:53;28.80;53.80
37052;DHT22;22964;52.272;13.356;2023-06-24T10:16:20;28.90;53.50
37052;DHT22;22964;52.272;13.356;2023-06-24T10:18:46;29.00;53.10
37052;DHT22;22964;52.272;13.356;2023-06-24T10:21:13;29.00;52.80
37052;DHT22;22964;52.272;13.356;2023-06-24T10:23:51;29.10;52.40
37052;DHT22;22964;52.272;13.356;2023-06-24T10:26:29;29.20;50.00
37052;DHT22;22964;52.272;13.356;2023-06-24T10:39:37;29.70;50.60
37052;DHT22;22964;52.272;13.356;2023-06-24T10:44:52;29.90;49.60
37052;DHT22;22964;52.272;13.356;2023-06-24T10:47:18;30.00;50.40
37052;DHT22;22964;52.272;13.356;2023-06-24T10:49:44;30.00;50.60
37052;DHT22;22964;52.272;13.356;2023-06-24T10:52:10;30.10;49.80
37052;DHT22;22964;52.272;13.356;2023-06-24T10:54:41;30.20;50.70
37052;DHT22;22964;52.272;13.356;2023-06-24T10:57:07;30.20;49.40
37052;DHT22;22964;52.272;13.356;2023-06-24T10:59:40;30.20;49.00
37052;DHT22;22964;52.272;13.356;2023-06-24T11:02:08;30.30;47.60
37052;DHT22;22964;52.272;13.356;2023-06-24T11:07:09;30.40;47.90
37052;DHT22;22964;52.272;13.356;2023-06-24T11:09:35;30.50;49.00
37052;DHT22;22964;52.272;13.356;2023-06-24T11:12:03;30.60;49.20
37052;DHT22;22964;52.272;13.356;2023-06-24T11:14:29;30.70;48.10
37052;DHT22;22964;52.272;13.356;2023-06-24T11:16:54;30.70;48.50
37052;DHT22;22964;52.272;13.356;2023-06-24T11:19:20;30.90;48.50
37052;DHT22;22964;52.272;13.356;2023-06-24T11:21:46;30.90;48.50
37052;DHT22;22964;52.272;13.356;2023-06-24T11:24:11;31.10;48.20
37052;DHT22;22964;52.272;13.356;2023-06-24T11:26:38;31.20;47.80
37052;DHT22;22964;52.272;13.356;2023-06-24T11:29:10;31.20;46.60
37052;DHT22;22964;52.272;13.356;2023-06-24T11:31:36;31.30;45.50
37052;DHT22;22964;52.272;13.356;2023-06-24T11:34:04;31.40;46.60
37052;DHT22;22964;52.272;13.356;2023-06-24T11:36:30;31.40;46.40
37052;DHT22;22964;52.272;13.356;2023-06-24T11:38:55;31.40;46.50
37052;DHT22;22964;52.272;13.356;2023-06-24T11:41:21;31.40;46.60
37052;DHT22;22964;52.272;13.356;2023-06-24T11:43:47;31.40;46.40
37052;DHT22;22964;52.272;13.356;2023-06-24T11:46:26;31.50;46.40
37052;DHT22;22964;52.272;13.356;2023-06-24T11:49:05;31.50;44.80
37052;DHT22;22964;52.272;13.356;2023-06-24T11:51:31;31.50;45.90
37052;DHT22;22964;52.272;13.356;2023-06-24T11:54:02;31.50;45.90
37052;DHT22;22964;52.272;13.356;2023-06-24T11:56:41;31.60;45.40
37052;DHT22;22964;52.272;13.356;2023-06-24T11:59:14;31.60;44.60
37052;DHT22;22964;52.272;13.356;2023-06-24T12:01:43;31.60;45.50
37052;DHT22;22964;52.272;13.356;2023-06-24T12:04:12;31.70;45.50
37052;DHT22;22964;52.272;13.356;2023-06-24T12:06:42;31.70;44.00
37052;DHT22;22964;52.272;13.356;2023-06-24T12:09:09;31.80;44.20
37052;DHT22;22964;52.272;13.356;2023-06-24T12:11:37;31.80;44.90
37052;DHT22;22964;52.272;13.356;2023-06-24T12:14:03;31.90;44.80
37052;DHT22;22964;52.272;13.356;2023-06-24T12:16:29;31.90;44.10
37052;DHT22;22964;52.272;13.356;2023-06-24T12:18:55;32.10;44.10
37052;DHT22;22964;52.272;13.356;2023-06-24T12:21:21;32.00;43.60
37052;DHT22;22964;52.272;13.356;2023-06-24T12:23:46;32.10;43.80
37052;DHT22;22964;52.272;13.356;2023-06-24T12:26:12;32.10;43.70
37052;DHT22;22964;52.272;13.356;2023-06-24T12:28:38;32.10;43.20
37052;DHT22;22964;52.272;13.356;2023-06-24T12:31:04;32.20;43.20
37052;DHT22;22964;52.272;13.356;2023-06-24T12:33:33;32.20;42.90
37052;DHT22;22964;52.272;13.356;2023-06-24T12:35:59;32.20;42.00
37052;DHT22;22964;52.272;13.356;2023-06-24T12:38:24;32.30;42.20
37052;DHT22;22964;52.272;13.356;2023-06-24T12:40:50;32.30;42.50
37052;DHT22;22964;52.272;13.356;2023-06-24T12:43:16;32.40;42.10
37052;DHT22;22964;52.272;13.356;2023-06-24T12:45:42;32.50;42.20
37052;DHT22;22964;52.272;13.356;2023-06-24T12:48:12;32.50;41.80
37052;DHT22;22964;52.272;13.356;2023-06-24T12:50:38;32.50;41.70
37052;DHT22;22964;52.272;13.356;2023-06-24T12:53:04;32.60;41.60
37052;DHT22;22964;52.272;13.356;2023-06-24T12:55:30;32.60;41.50
37052;DHT22;22964;52.272;13.356;2023-06-24T12:57:56;32.70;40.70
37052;DHT22;22964;52.272;13.356;2023-06-24T13:00:23;32.80;40.50
37052;DHT22;22964;52.272;13.356;2023-06-24T13:02:50;32.80;40.00
37052;DHT22;22964;52.272;13.356;2023-06-24T13:05:16;32.80;39.90
37052;DHT22;22964;52.272;13.356;2023-06-24T13:07:42;32.90;40.20
37052;DHT22;22964;52.272;13.356;2023-06-24T13:10:08;32.90;39.30
37052;DHT22;22964;52.272;13.356;2023-06-24T13:12:35;33.00;39.40
37052;DHT22;22964;52.272;13.356;2023-06-24T13:15:01;33.00;38.80
37052;DHT22;22964;52.272;13.356;2023-06-24T13:17:27;33.10;39.30
37052;DHT22;22964;52.272;13.356;2023-06-24T13:19:52;33.10;38.70
37052;DHT22;22964;52.272;13.356;2023-06-24T13:22:18;33.10;38.90
37052;DHT22;22964;52.272;13.356;2023-06-24T13:24:44;33.20;39.50
37052;DHT22;22964;52.272;13.356;2023-06-24T13:27:10;33.20;38.80
37052;DHT22;22964;52.272;13.356;2023-06-24T13:29:36;33.20;39.10
37052;DHT22;22964;52.272;13.356;2023-06-24T13:32:02;33.20;38.70
37052;DHT22;22964;52.272;13.356;2023-06-24T13:34:28;33.20;38.70
37052;DHT22;22964;52.272;13.356;2023-06-24T13:36:54;33.20;38.50
37052;DHT22;22964;52.272;13.356;2023-06-24T13:39:20;33.30;37.90
37052;DHT22;22964;52.272;13.356;2023-06-24T13:41:49;33.30;38.30
37052;DHT22;22964;52.272;13.356;2023-06-24T13:44:15;33.30;38.30
37052;DHT22;22964;52.272;13.356;2023-06-24T13:46:42;33.30;38.00
37052;DHT22;22964;52.272;13.356;2023-06-24T13:49:08;33.30;38.10
37052;DHT22;22964;52.272;13.356;2023-06-24T13:51:34;33.40;38.30
37052;DHT22;22964;52.272;13.356;2023-06-24T13:54:00;33.40;37.80
37052;DHT22;22964;52.272;13.356;2023-06-24T13:56:26;33.40;38.10
37052;DHT22;22964;52.272;13.356;2023-06-24T13:58:52;33.40;38.50
37052;DHT22;22964;52.272;13.356;2023-06-24T14:01:19;33.40;38.30
37052;DHT22;22964;52.272;13.356;2023-06-24T14:03:45;33.40;38.10
37052;DHT22;22964;52.272;13.356;2023-06-24T14:06:14;33.40;37.70
37052;DHT22;22964;52.272;13.356;2023-06-24T14:08:44;33.50;37.10
37052;DHT22;22964;52.272;13.356;2023-06-24T14:11:10;33.50;37.50
37052;DHT22;22964;52.272;13.356;2023-06-24T14:13:35;33.50;37.20
37052;DHT22;22964;52.272;13.356;2023-06-24T14:16:04;33.50;37.50
37052;DHT22;22964;52.272;13.356;2023-06-24T14:18:30;33.50;37.70
37052;DHT22;22964;52.272;13.356;2023-06-24T14:21:00;33.50;37.50
37052;DHT22;22964;52.272;13.356;2023-06-24T14:23:27;33.60;37.50
37052;DHT22;22964;52.272;13.356;2023-06-24T14:25:53;33.60;37.60
37052;DHT22;22964;52.272;13.356;2023-06-24T14:28:20;33.60;37.30
37052;DHT22;22964;52.272;13.356;2023-06-24T14:30:46;33.70;36.90
37052;DHT22;22964;52.272;13.356;2023-06-24T14:33:12;33.80;37.00
37052;DHT22;22964;52.272;13.356;2023-06-24T14:35:38;33.80;37.40
37052;DHT22;22964;52.272;13.356;2023-06-24T14:38:04;33.80;36.90
37052;DHT22;22964;52.272;13.356;2023-06-24T14:40:31;33.80;36.90
37052;DHT22;22964;52.272;13.356;2023-06-24T14:42:57;33.90;36.40
37052;DHT22;22964;52.272;13.356;2023-06-24T14:45:23;34.00;36.80
37052;DHT22;22964;52.272;13.356;2023-06-24T14:47:48;34.00;36.20
37052;DHT22;22964;52.272;13.356;2023-06-24T14:50:14;34.00;36.10
37052;DHT22;22964;52.272;13.356;2023-06-24T14:52:40;34.10;36.30
37052;DHT22;22964;52.272;13.356;2023-06-24T14:55:06;34.10;35.80
37052;DHT22;22964;52.272;13.356;2023-06-24T14:57:32;34.10;35.70
37052;DHT22;22964;52.272;13.356;2023-06-24T14:59:57;34.10;35.80
37052;DHT22;22964;52.272;13.356;2023-06-24T15:02:23;34.10;35.60
37052;DHT22;22964;52.272;13.356;2023-06-24T15:04:51;34.10;36.10
37052;DHT22;22964;52.272;13.356;2023-06-24T15:07:17;34.20;35.90
37052;DHT22;22964;52.272;13.356;2023-06-24T15:09:42;34.20;35.40
37052;DHT22;22964;52.272;13.356;2023-06-24T15:12:09;34.20;35.50
37052;DHT22;22964;52.272;13.356;2023-06-24T15:14:35;34.20;35.30
37052;DHT22;22964;52.272;13.356;2023-06-24T15:17:00;34.30;35.50
37052;DHT22;22964;52.272;13.356;2023-06-24T15:19:26;34.30;35.30
37052;DHT22;22964;52.272;13.356;2023-06-24T15:21:53;34.30;35.20
37052;DHT22;22964;52.272;13.356;2023-06-24T15:24:18;34.30;35.20
37052;DHT22;22964;52.272;13.356;2023-06-24T15:26:44;34.20;35.40
37052;DHT22;22964;52.272;13.356;2023-06-24T15:29:10;34.20;35.30
37052;DHT22;22964;52.272;13.356;2023-06-24T15:31:35;34.20;35.70
37052;DHT22;22964;52.272;13.356;2023-06-24T15:34:01;34.20;35.00
37052;DHT22;22964;52.272;13.356;2023-06-24T15:36:27;34.20;35.00
37052;DHT22;22964;52.272;13.356;2023-06-24T15:38:54;34.20;35.10